Time;durP1;ratioP1;P1;durP2;ratioP2;P2;SDS_P1;SDS_P2;PMS_P1;PMS_P2;Temp;Humidity;BMP_temperature;BMP_pressure;BME280_temperature;BME280_humidity;BME280_pressure;Samples;Min_cycle;Max_cycle;Signal;HPM_P1;HPM_P2
2022/08/27 00:00:17;;;;;;;5.07;3.70;;;14.90;99.90;;;;;;5069687;28;20471;-74
2022/08/27 00:02:43;;;;;;;6.00;2.83;;;15.00;99.90;;;;;;5078729;28;20479;-74
2022/08/27 00:05:14;;;;;;;6.72;3.42;;;15.00;99.90;;;;;;5075271;28;20512;-74
2022/08/27 00:07:41;;;;;;;7.10;3.08;;;14.90;99.90;;;;;;5079783;28;20118;-74
2022/08/27 00:10:10;;;;;;;6.38;2.92;;;14.90;99.90;;;;;;5077763;28;20044;-74
2022/08/27 00:12:36;;;;;;;4.40;2.65;;;15.00;99.90;;;;;;5070630;28;20413;-75
2022/08/27 00:15:05;;;;;;;8.05;3.22;;;14.90;99.90;;;;;;5064833;28;20487;-75
2022/08/27 00:17:31;;;;;;;6.90;3.17;;;14.90;99.90;;;;;;5067901;28;20407;-74
2022/08/27 00:19:57;;;;;;;6.47;3.05;;;14.90;99.90;;;;;;5080555;28;20062;-74
2022/08/27 00:22:23;;;;;;;5.75;3.03;;;15.00;99.90;;;;;;5066028;28;20473;-74
2022/08/27 00:24:48;;;;;;;8.63;3.40;;;14.80;99.90;;;;;;5066382;28;20062;-74
2022/08/27 00:27:14;;;;;;;5.85;3.47;;;14.80;99.90;;;;;;5074337;28;20132;-75
2022/08/27 00:29:39;;;;;;;4.35;2.58;;;14.90;99.90;;;;;;5076504;28;20040;-74
2022/08/27 00:32:07;;;;;;;6.72;3.42;;;14.80;99.90;;;;;;5084848;28;20421;-73
2022/08/27 00:34:33;;;;;;;7.82;3.33;;;14.80;99.90;;;;;;5068249;28;20142;-74
2022/08/27 00:36:59;;;;;;;8.98;3.45;;;14.80;99.90;;;;;;5068005;28;20647;-75
2022/08/27 00:39:24;;;;;;;6.00;3.13;;;14.80;99.90;;;;;;5075023;28;20464;-75
2022/08/27 00:41:50;;;;;;;10.07;3.55;;;14.80;99.90;;;;;;5078389;28;20051;-75
2022/08/27 00:44:16;;;;;;;6.40;3.22;;;14.70;99.90;;;;;;5077036;28;20790;-74
2022/08/27 00:46:52;;;;;;;6.95;3.63;;;14.60;99.90;;;;;;5080220;28;20416;-74
2022/08/27 00:49:40;;;;;;;6.18;3.30;;;14.60;99.90;;;;;;5069171;28;20555;-75
2022/08/27 00:52:22;;;;;;;6.15;2.97;;;14.60;99.90;;;;;;5083275;28;20054;-75
2022/08/27 00:54:52;;;;;;;5.15;3.10;;;14.60;99.90;;;;;;5074606;28;20041;-75
2022/08/27 00:57:18;;;;;;;6.22;2.60;;;14.60;99.90;;;;;;5070613;28;20052;-73
2022/08/27 00:59:44;;;;;;;5.47;2.67;;;14.30;99.90;;;;;;5081832;28;20056;-73
2022/08/27 01:02:19;;;;;;;5.70;3.15;;;14.40;99.90;;;;;;5065477;28;20052;-73
2022/08/27 01:04:59;;;;;;;8.30;2.58;;;14.50;99.90;;;;;;5080511;28;20074;-73
2022/08/27 01:07:27;;;;;;;4.20;2.65;;;14.50;99.90;;;;;;5065502;28;20052;-75
2022/08/27 01:09:56;;;;;;;6.22;3.35;;;14.70;99.90;;;;;;5069120;28;20077;-74
2022/08/27 01:12:22;;;;;;;6.70;3.88;;;14.70;99.90;;;;;;5066396;28;20075;-75
2022/08/27 01:14:48;;;;;;;10.80;4.68;;;14.60;99.90;;;;;;5069194;28;20072;-75
2022/08/27 01:17:14;;;;;;;7.72;3.78;;;14.50;99.90;;;;;;5063871;28;20499;-74
2022/08/27 01:19:50;;;;;;;6.47;3.70;;;14.50;99.90;;;;;;5074283;28;20102;-75
2022/08/27 01:22:25;;;;;;;7.32;3.33;;;14.50;99.90;;;;;;5064342;28;20044;-76
2022/08/27 01:24:55;;;;;;;17.38;3.33;;;14.60;99.90;;;;;;5065489;28;20040;-75
2022/08/27 01:27:25;;;;;;;3.53;2.53;;;14.50;99.90;;;;;;5069395;28;20052;-75
2022/08/27 01:29:51;;;;;;;5.72;3.92;;;14.50;99.90;;;;;;5065767;28;20411;-73
2022/08/27 01:32:26;;;;;;;5.80;3.42;;;14.60;99.90;;;;;;5068067;28;20044;-74
2022/08/27 01:34:53;;;;;;;3.88;2.70;;;14.50;99.90;;;;;;5075268;28;20097;-74
2022/08/27 01:37:20;;;;;;;6.25;3.33;;;14.50;99.90;;;;;;5081513;28;20047;-74
2022/08/27 01:39:46;;;;;;;12.68;5.30;;;14.50;99.90;;;;;;5063158;28;20079;-74
2022/08/27 01:42:20;;;;;;;7.28;3.78;;;14.30;99.90;;;;;;5068248;28;20075;-73
2022/08/27 01:44:54;;;;;;;6.43;3.47;;;14.30;99.90;;;;;;5111720;22;20035;-76
2022/08/27 01:47:22;;;;;;;6.88;3.55;;;14.30;99.90;;;;;;4980462;28;20449;-75
2022/08/27 01:49:48;;;;;;;4.05;3.00;;;14.40;99.90;;;;;;4970165;28;20054;-73
2022/08/27 01:52:18;;;;;;;4.35;2.63;;;14.30;99.90;;;;;;4977508;28;20137;-75
2022/08/27 01:54:44;;;;;;;5.30;3.30;;;14.30;99.90;;;;;;4986260;28;20129;-75
2022/08/27 01:57:11;;;;;;;7.90;3.75;;;14.40;99.90;;;;;;4983155;28;20038;-75
2022/08/27 01:59:37;;;;;;;6.32;3.17;;;14.40;99.90;;;;;;4977365;28;20046;-74
2022/08/27 02:02:04;;;;;;;14.10;4.22;;;14.40;99.90;;;;;;4982039;28;20077;-75
2022/08/27 02:04:30;;;;;;;6.07;2.70;;;14.30;99.90;;;;;;4980336;28;20038;-74
2022/08/27 02:06:57;;;;;;;5.38;3.75;;;14.40;99.90;;;;;;4977522;28;20456;-75
2022/08/27 02:09:24;;;;;;;7.65;3.97;;;14.40;99.90;;;;;;4970649;28;20042;-75
2022/08/27 02:11:49;;;;;;;8.02;3.70;;;14.40;99.90;;;;;;4982555;28;20096;-74
2022/08/27 02:14:15;;;;;;;6.20;2.72;;;14.50;99.90;;;;;;4973852;28;20047;-73
2022/08/27 02:16:41;;;;;;;6.05;3.35;;;14.40;99.90;;;;;;4982746;28;20065;-75
2022/08/27 02:19:07;;;;;;;4.07;3.47;;;14.40;99.90;;;;;;4984726;28;20521;-74
2022/08/27 02:21:33;;;;;;;6.45;3.20;;;14.30;99.90;;;;;;4982666;28;20101;-75
2022/08/27 02:23:58;;;;;;;8.57;4.35;;;14.30;99.90;;;;;;4972470;28;20126;-74
2022/08/27 02:26:26;;;;;;;8.27;3.75;;;14.20;99.90;;;;;;4983630;28;20065;-74
2022/08/27 02:28:52;;;;;;;9.38;3.60;;;14.20;99.90;;;;;;4986110;28;20042;-74
2022/08/27 02:31:19;;;;;;;8.80;3.72;;;14.20;99.90;;;;;;4970812;28;20062;-74
2022/08/27 02:33:45;;;;;;;7.93;3.55;;;14.20;99.90;;;;;;4969254;28;20042;-74
2022/08/27 02:36:12;;;;;;;10.95;3.67;;;14.10;99.90;;;;;;4979417;28;20374;-75
2022/08/27 02:38:39;;;;;;;7.85;3.65;;;14.10;99.90;;;;;;4973185;28;20417;-75
2022/08/27 02:41:05;;;;;;;6.60;3.58;;;14.10;99.90;;;;;;4982038;28;20405;-73
2022/08/27 02:43:30;;;;;;;6.68;3.20;;;14.00;99.90;;;;;;4970106;28;20366;-74
2022/08/27 02:45:56;;;;;;;9.13;4.60;;;13.90;99.90;;;;;;4971687;28;20055;-74
2022/08/27 02:48:23;;;;;;;6.28;3.30;;;14.00;99.90;;;;;;4979351;28;20047;-74
2022/08/27 02:50:49;;;;;;;6.80;3.53;;;14.00;99.90;;;;;;4974174;28;20042;-74
2022/08/27 02:53:15;;;;;;;10.90;3.03;;;13.90;99.90;;;;;;4977523;28;20101;-74
2022/08/27 02:55:41;;;;;;;6.70;2.60;;;13.90;99.90;;;;;;4984689;28;20050;-75
2022/08/27 02:58:08;;;;;;;6.65;3.53;;;13.90;99.90;;;;;;4979983;28;20046;-73
2022/08/27 03:00:34;;;;;;;7.97;3.50;;;13.80;99.90;;;;;;4969542;28;20042;-74
2022/08/27 03:03:01;;;;;;;5.78;3.08;;;13.70;99.90;;;;;;4983498;28;20043;-74
2022/08/27 03:05:27;;;;;;;8.13;2.97;;;13.70;99.90;;;;;;4982932;28;20046;-73
2022/08/27 03:07:53;;;;;;;6.93;3.83;;;13.70;99.90;;;;;;4984494;28;20082;-75
2022/08/27 03:10:20;;;;;;;7.82;3.15;;;13.60;99.90;;;;;;4972877;28;20465;-74
2022/08/27 03:12:46;;;;;;;4.03;3.55;;;13.60;99.90;;;;;;4978175;28;20058;-73
2022/08/27 03:15:15;;;;;;;4.50;2.63;;;13.60;99.90;;;;;;4975139;28;20054;-74
2022/08/27 03:20:26;;;;;;;5.40;3.05;;;13.80;99.90;;;;;;4983752;28;20137;-74
2022/08/27 03:22:52;;;;;;;5.47;3.58;;;13.80;99.90;;;;;;4982930;28;20409;-74
2022/08/27 03:25:18;;;;;;;4.97;3.33;;;13.70;99.90;;;;;;4978351;28;20046;-74
2022/08/27 03:27:43;;;;;;;8.85;3.25;;;13.70;99.90;;;;;;4984066;28;20046;-75
2022/08/27 03:30:14;;;;;;;6.80;3.63;;;13.80;99.90;;;;;;4979534;28;20042;-74
2022/08/27 03:32:41;;;;;;;7.18;4.25;;;13.80;99.90;;;;;;4968297;28;20048;-74
2022/08/27 03:35:07;;;;;;;5.03;2.72;;;13.70;99.90;;;;;;4985594;28;20113;-74
2022/08/27 03:37:34;;;;;;;4.78;3.95;;;13.80;99.90;;;;;;4990154;28;20041;-73
2022/08/27 03:39:59;;;;;;;3.90;2.72;;;13.80;99.90;;;;;;4980886;28;20580;-74
2022/08/27 03:42:25;;;;;;;5.70;3.55;;;13.90;99.90;;;;;;4988079;28;20049;-74
2022/08/27 03:44:51;;;;;;;3.25;2.58;;;13.90;99.90;;;;;;4986908;28;20070;-74
2022/08/27 03:47:17;;;;;;;9.18;4.38;;;14.00;99.90;;;;;;4987725;28;20046;-73
2022/08/27 03:49:43;;;;;;;4.90;2.92;;;14.00;99.90;;;;;;4980778;28;20587;-74
2022/08/27 03:52:09;;;;;;;5.70;2.85;;;14.10;99.90;;;;;;4986929;28;20046;-74
2022/08/27 03:54:36;;;;;;;5.25;3.20;;;14.10;99.90;;;;;;4986875;28;20665;-72
2022/08/27 03:57:03;;;;;;;4.03;2.20;;;14.20;99.90;;;;;;4988732;28;20042;-75
2022/08/27 03:59:30;;;;;;;4.28;2.25;;;14.20;99.90;;;;;;4987674;28;20057;-75
2022/08/27 04:01:56;;;;;;;5.78;2.75;;;14.30;99.90;;;;;;4985624;28;20551;-74
2022/08/27 04:04:23;;;;;;;6.47;2.92;;;14.40;99.90;;;;;;4984115;28;20050;-75
2022/08/27 04:06:48;;;;;;;4.85;3.08;;;14.40;99.90;;;;;;4988363;28;20053;-74
2022/08/27 04:09:14;;;;;;;2.97;2.25;;;14.40;99.90;;;;;;4983666;28;20038;-75
2022/08/27 04:11:40;;;;;;;4.60;2.20;;;14.50;99.90;;;;;;4983519;28;20473;-74
2022/08/27 04:14:06;;;;;;;3.53;2.20;;;14.50;99.90;;;;;;4985818;28;20045;-74
2022/08/27 04:16:33;;;;;;;5.00;3.33;;;14.40;99.90;;;;;;4986999;28;20516;-74
2022/08/27 04:18:59;;;;;;;4.82;2.60;;;14.50;99.90;;;;;;4981736;28;20046;-74
2022/08/27 04:21:25;;;;;;;4.28;2.53;;;14.50;99.90;;;;;;4971995;28;20107;-73
2022/08/27 04:23:51;;;;;;;5.55;2.88;;;14.50;99.90;;;;;;4985478;28;20049;-73
2022/08/27 04:26:18;;;;;;;5.20;2.72;;;14.50;99.90;;;;;;4987087;28;20054;-74
2022/08/27 04:28:43;;;;;;;6.63;2.67;;;14.60;99.90;;;;;;4986388;28;20046;-74
2022/08/27 04:31:09;;;;;;;6.30;2.80;;;14.50;99.90;;;;;;4986326;28;20141;-74
2022/08/27 04:33:35;;;;;;;4.85;2.72;;;14.40;99.90;;;;;;4983829;28;20046;-73
2022/08/27 04:36:07;;;;;;;9.85;2.85;;;14.40;99.90;;;;;;4983132;28;20520;-73
2022/08/27 04:38:33;;;;;;;5.22;2.10;;;14.40;99.90;;;;;;4983740;28;20057;-73
2022/08/27 04:43:50;;;;;;;4.10;2.50;;;14.30;99.90;;;;;;4986095;28;20081;-74
2022/08/27 04:46:21;;;;;;;6.07;3.25;;;14.20;99.90;;;;;;4984433;28;20050;-73
2022/08/27 04:48:46;;;;;;;4.95;2.33;;;14.20;99.90;;;;;;4983274;28;20064;-72
2022/08/27 04:51:12;;;;;;;4.05;2.55;;;14.20;99.90;;;;;;4984549;28;20034;-75
2022/08/27 04:53:38;;;;;;;4.38;2.65;;;14.30;99.90;;;;;;4987134;28;20054;-74
2022/08/27 04:56:04;;;;;;;7.68;3.92;;;14.20;99.90;;;;;;4990518;28;20034;-76
2022/08/27 04:58:30;;;;;;;10.60;3.35;;;14.20;99.90;;;;;;4985148;28;20045;-74
2022/08/27 05:01:00;;;;;;;5.20;2.83;;;14.20;99.90;;;;;;4992070;28;20140;-75
2022/08/27 05:03:27;;;;;;;;;;;14.20;99.90;;;;;;4986607;28;20132;-76
2022/08/27 05:06:01;;;;;;;16.25;3.72;;;14.40;99.90;;;;;;4987053;28;19922;-75
2022/08/27 05:08:27;;;;;;;6.43;2.75;;;14.40;99.90;;;;;;4986521;28;20121;-75
2022/08/27 05:10:53;;;;;;;7.95;3.38;;;14.40;99.90;;;;;;4986568;28;20114;-74
2022/08/27 05:13:22;;;;;;;3.78;2.65;;;14.40;99.90;;;;;;4990483;28;20080;-76
2022/08/27 05:15:48;;;;;;;3.65;2.10;;;14.40;99.90;;;;;;5006195;28;20400;-74
2022/08/27 05:18:14;;;;;;;5.03;2.55;;;14.50;99.90;;;;;;4985554;28;20518;-74
2022/08/27 05:20:46;;;;;;;4.93;2.47;;;14.60;99.90;;;;;;4987866;28;20121;-74
2022/08/27 05:23:13;;;;;;;7.20;2.58;;;14.60;99.90;;;;;;4984346;28;20034;-74
2022/08/27 05:25:43;;;;;;;4.63;1.98;;;14.70;99.90;;;;;;4987475;28;20408;-74
2022/08/27 05:28:09;;;;;;;10.35;3.83;;;14.80;99.90;;;;;;4983434;28;20065;-73
2022/08/27 05:30:40;;;;;;;4.00;2.63;;;14.80;99.90;;;;;;4987109;28;20054;-73
2022/08/27 05:33:07;;;;;;;9.10;1.83;;;14.80;99.90;;;;;;4989506;28;20054;-74
2022/08/27 05:35:55;;;;;;;4.65;2.45;;;14.90;99.90;;;;;;4983310;28;20046;-74
2022/08/27 05:38:23;;;;;;;4.22;2.75;;;15.00;99.90;;;;;;4984092;28;20057;-73
2022/08/27 05:40:50;;;;;;;7.57;2.80;;;15.00;99.90;;;;;;4984181;28;20049;-74
2022/08/27 05:43:17;;;;;;;5.25;3.10;;;15.10;99.90;;;;;;4985003;28;20449;-73
2022/08/27 05:45:45;;;;;;;6.35;3.47;;;15.10;99.90;;;;;;4985895;28;20054;-74
2022/08/27 05:48:12;;;;;;;3.45;2.88;;;15.10;99.90;;;;;;4984632;28;20130;-76
2022/08/27 05:50:39;;;;;;;4.43;2.30;;;15.30;99.90;;;;;;4985536;28;20069;-77
2022/08/27 05:53:05;;;;;;;5.88;2.60;;;15.30;99.90;;;;;;4985812;28;20042;-74
2022/08/27 05:55:43;;;;;;;6.60;2.58;;;15.30;99.90;;;;;;4985615;28;20139;-77
2022/08/27 06:01:03;;;;;;;5.85;3.13;;;15.40;99.90;;;;;;4979559;28;20042;-78
2022/08/27 06:01:05;;;;;;;7.35;3.30;;;15.30;99.90;;;;;;4983673;28;20058;-78
2022/08/27 06:03:32;;;;;;;6.75;2.42;;;15.40;99.90;;;;;;4981112;28;20042;-76
2022/08/27 06:06:08;;;;;;;6.18;2.30;;;15.50;99.90;;;;;;4984259;28;20072;-78
2022/08/27 06:08:35;;;;;;;8.98;2.22;;;15.60;99.90;;;;;;5002061;28;20056;-78
2022/08/27 06:11:02;;;;;;;6.72;2.97;;;15.70;99.90;;;;;;4985042;28;20129;-77
2022/08/27 06:13:28;;;;;;;9.73;3.47;;;15.60;99.90;;;;;;4985574;28;20050;-78
2022/08/27 06:16:07;;;;;;;5.75;2.63;;;15.80;99.90;;;;;;4984920;28;20136;-78
2022/08/27 06:18:37;;;;;;;4.18;2.08;;;15.80;99.90;;;;;;4984810;28;20493;-78
2022/08/27 06:21:04;;;;;;;9.90;2.72;;;15.80;99.90;;;;;;4985458;28;20038;-77
2022/08/27 06:23:30;;;;;;;11.00;2.72;;;16.00;99.90;;;;;;4986527;28;20141;-78
2022/08/27 06:25:57;;;;;;;5.45;1.77;;;16.00;99.90;;;;;;4983975;28;20400;-78
2022/08/27 06:28:24;;;;;;;9.10;3.13;;;16.10;99.90;;;;;;4984420;28;20062;-76
2022/08/27 06:30:50;;;;;;;6.97;1.98;;;16.10;99.90;;;;;;4985963;28;20072;-77
2022/08/27 06:33:16;;;;;;;5.35;1.65;;;16.10;99.90;;;;;;4982861;28;20497;-77
2022/08/27 06:35:42;;;;;;;7.60;1.60;;;16.20;99.90;;;;;;4983779;28;20050;-76
2022/08/27 06:38:07;;;;;;;31.85;5.38;;;16.20;99.90;;;;;;4985237;28;20078;-78
2022/08/27 06:40:34;;;;;;;7.28;1.73;;;16.20;99.90;;;;;;4985765;28;20121;-76
2022/08/27 06:42:59;;;;;;;11.88;1.73;;;16.20;99.90;;;;;;4983441;28;20046;-78
2022/08/27 06:45:25;;;;;;;9.57;2.50;;;16.40;99.90;;;;;;4985725;28;20112;-78
2022/08/27 06:47:52;;;;;;;13.73;2.45;;;16.50;99.90;;;;;;4982605;28;20468;-77
2022/08/27 06:50:19;;;;;;;3.25;1.35;;;16.50;99.90;;;;;;4984788;28;20042;-78
2022/08/27 06:52:46;;;;;;;6.75;1.50;;;16.60;99.90;;;;;;4984478;28;20039;-80
2022/08/27 06:55:12;;;;;;;3.88;1.35;;;16.60;99.90;;;;;;4984491;28;20057;-78
2022/08/27 06:57:37;;;;;;;6.82;1.73;;;16.70;99.90;;;;;;4985092;28;20038;-79
2022/08/27 07:00:05;;;;;;;2.75;1.50;;;16.70;99.90;;;;;;4983980;28;20481;-79
2022/08/27 07:02:31;;;;;;;10.05;2.85;;;16.70;99.90;;;;;;4985543;28;20042;-81
2022/08/27 07:04:57;;;;;;;4.45;1.27;;;16.80;99.90;;;;;;4984284;28;20131;-78
2022/08/27 07:07:22;;;;;;;7.95;2.13;;;16.90;99.90;;;;;;4988756;28;20042;-79
2022/08/27 07:09:48;;;;;;;9.52;2.00;;;17.00;99.90;;;;;;4988442;28;20409;-79
2022/08/27 07:12:14;;;;;;;2.50;1.30;;;17.00;99.90;;;;;;5003280;28;20042;-77
2022/08/27 07:14:41;;;;;;;7.55;2.10;;;17.00;99.90;;;;;;4987914;28;20073;-78
2022/08/27 07:17:07;;;;;;;5.55;1.10;;;17.00;99.90;;;;;;4987574;28;20405;-79
2022/08/27 07:19:37;;;;;;;4.32;1.25;;;17.10;99.90;;;;;;4986898;28;20046;-77
2022/08/27 07:22:03;;;;;;;7.05;1.30;;;17.20;99.90;;;;;;4989426;28;20050;-79
2022/08/27 07:24:29;;;;;;;7.32;1.50;;;17.20;99.90;;;;;;4986439;28;20057;-78
2022/08/27 07:26:55;;;;;;;14.32;3.38;;;17.30;99.90;;;;;;4989548;28;20128;-78
2022/08/27 07:29:20;;;;;;;6.43;1.30;;;17.30;99.90;;;;;;4986080;28;20523;-81
2022/08/27 07:31:46;;;;;;;7.68;2.42;;;17.30;99.90;;;;;;4988967;28;20054;-76
2022/08/27 07:34:12;;;;;;;3.97;1.20;;;17.50;99.90;;;;;;4986516;28;20097;-78
2022/08/27 07:36:39;;;;;;;5.15;1.70;;;17.50;99.90;;;;;;4989560;28;20042;-77
2022/08/27 07:39:06;;;;;;;4.43;1.25;;;17.50;99.90;;;;;;4988754;28;20436;-77
2022/08/27 07:44:23;;;;;;;5.13;1.13;;;17.60;99.90;;;;;;4985503;28;20101;-78
2022/08/27 07:44:26;;;;;;;4.95;1.27;;;17.40;99.90;;;;;;4987274;28;20052;-78
2022/08/27 07:46:57;;;;;;;4.53;1.42;;;17.60;99.90;;;;;;4988537;28;20058;-77
2022/08/27 07:49:26;;;;;;;4.28;1.33;;;18.10;99.90;;;;;;5001846;28;20051;-79
2022/08/27 07:51:51;;;;;;;5.97;1.75;;;18.10;99.90;;;;;;4988313;28;20046;-77
2022/08/27 07:54:20;;;;;;;8.00;2.35;;;17.90;99.90;;;;;;4988133;28;20046;-77
2022/08/27 07:56:46;;;;;;;12.88;1.73;;;18.00;99.90;;;;;;4982719;28;20042;-77
2022/08/27 07:59:12;;;;;;;13.68;1.90;;;18.00;99.90;;;;;;4987942;28;20539;-77
2022/08/27 08:01:40;;;;;;;6.22;1.02;;;18.00;99.90;;;;;;4986472;28;20035;-76
2022/08/27 08:04:07;;;;;;;5.60;2.25;;;18.10;99.90;;;;;;4986469;28;20054;-78
2022/08/27 08:06:36;;;;;;;10.73;2.30;;;18.10;99.90;;;;;;4987787;28;20493;-76
2022/08/27 08:09:01;;;;;;;4.35;0.93;;;18.30;99.90;;;;;;4988392;28;20615;-77
2022/08/27 08:11:27;;;;;;;6.25;1.15;;;18.20;99.90;;;;;;4986967;28;20118;-78
2022/08/27 08:13:53;;;;;;;8.35;1.38;;;18.20;99.90;;;;;;4986126;28;20050;-78
2022/08/27 08:16:19;;;;;;;6.20;1.05;;;18.20;99.90;;;;;;4986634;28;20121;-77
2022/08/27 08:18:45;;;;;;;5.40;1.00;;;18.20;99.90;;;;;;4984381;28;20057;-79
2022/08/27 08:21:13;;;;;;;2.58;0.65;;;18.20;99.90;;;;;;5000974;28;20046;-76
2022/08/27 08:23:39;;;;;;;6.50;2.75;;;18.30;99.90;;;;;;4986240;28;20089;-77
2022/08/27 08:26:05;;;;;;;10.88;1.95;;;18.30;99.90;;;;;;4969268;28;20137;-78
2022/08/27 08:28:31;;;;;;;7.18;1.40;;;18.30;99.90;;;;;;4986106;28;20104;-78
2022/08/27 08:30:58;;;;;;;5.15;1.00;;;18.40;99.90;;;;;;4986277;28;20034;-78
2022/08/27 08:33:23;;;;;;;6.05;0.90;;;18.40;99.90;;;;;;4985137;28;20046;-78
2022/08/27 08:35:49;;;;;;;9.05;1.02;;;18.60;99.90;;;;;;4988037;28;20073;-77
2022/08/27 08:38:16;;;;;;;7.50;1.98;;;19.00;99.90;;;;;;4985692;28;20050;-77
2022/08/27 08:40:49;;;;;;;4.65;1.25;;;19.20;99.90;;;;;;4988244;28;20509;-76
2022/08/27 08:43:43;;;;;;;4.78;0.88;;;19.10;99.90;;;;;;4984246;28;20058;-75
2022/08/27 08:46:21;;;;;;;3.85;1.85;;;19.00;99.90;;;;;;4968336;28;20114;-77
2022/08/27 08:48:51;;;;;;;7.95;1.50;;;19.00;99.90;;;;;;4981906;28;20054;-76
2022/08/27 08:51:23;;;;;;;9.10;1.48;;;18.90;99.90;;;;;;4987484;28;20413;-77
2022/08/27 08:53:57;;;;;;;3.92;1.67;;;18.90;99.90;;;;;;4987906;28;20531;-78
2022/08/27 08:56:53;;;;;;;7.43;1.65;;;18.80;99.90;;;;;;5000974;28;20504;-78
2022/08/27 08:59:32;;;;;;;6.78;1.25;;;18.90;99.90;;;;;;4985024;28;20081;-78
2022/08/27 09:01:58;;;;;;;8.77;2.67;;;19.10;99.90;;;;;;4984040;28;20436;-77
2022/08/27 09:04:25;;;;;;;3.85;1.83;;;19.20;99.90;;;;;;4984477;28;20034;-78
2022/08/27 09:07:04;;;;;;;4.50;1.20;;;19.20;99.90;;;;;;4987446;28;20034;-76
2022/08/27 09:09:48;;;;;;;3.03;0.95;;;19.00;99.90;;;;;;4987305;28;20039;-79
2022/08/27 09:12:40;;;;;;;3.17;1.00;;;19.00;99.90;;;;;;4968602;28;20078;-78
2022/08/27 09:15:15;;;;;;;8.95;1.05;;;18.90;99.90;;;;;;4986294;28;20060;-79
2022/08/27 09:17:41;;;;;;;6.05;1.85;;;18.80;99.90;;;;;;4983774;28;20042;-77
2022/08/27 09:20:09;;;;;;;6.20;1.30;;;18.90;99.90;;;;;;4985101;28;20070;-77
2022/08/27 09:23:10;;;;;;;5.00;1.00;;;18.80;99.90;;;;;;4986503;28;20046;-78
2022/08/27 09:25:38;;;;;;;8.05;2.45;;;18.80;99.90;;;;;;5001714;28;20051;-76
2022/08/27 09:29:14;;;;;;;11.20;2.08;;;19.00;99.90;;;;;;4987031;28;20456;-77
2022/08/27 09:31:15;;;;;;;5.03;1.63;;;19.00;99.90;;;;;;4983339;28;20623;-78
2022/08/27 09:33:41;;;;;;;4.05;1.25;;;19.00;99.90;;;;;;4979208;28;20129;-78
2022/08/27 09:36:14;;;;;;;5.72;1.20;;;19.10;99.90;;;;;;4984958;28;20374;-78
2022/08/27 09:38:50;;;;;;;3.58;1.00;;;19.20;99.90;;;;;;4987146;28;20121;-78
2022/08/27 09:41:24;;;;;;;6.30;1.45;;;19.20;99.90;;;;;;4978528;28;21154;-79
2022/08/27 09:44:02;;;;;;;5.55;1.17;;;19.30;99.90;;;;;;4984424;28;20515;-80
2022/08/27 09:46:28;;;;;;;3.47;1.13;;;19.10;99.90;;;;;;4984095;28;20467;-79
2022/08/27 09:48:54;;;;;;;1.88;1.08;;;19.20;99.90;;;;;;4984340;28;20393;-81
2022/08/27 09:51:26;;;;;;;6.13;1.02;;;19.30;99.90;;;;;;4986173;28;20386;-80
2022/08/27 09:53:59;;;;;;;6.75;1.15;;;19.30;99.90;;;;;;4971737;28;20466;-79
2022/08/27 09:56:27;;;;;;;6.53;1.60;;;19.20;99.90;;;;;;4997103;28;20471;-79
2022/08/27 09:59:00;;;;;;;4.50;0.95;;;19.10;99.90;;;;;;4976754;28;20050;-79
2022/08/27 10:01:29;;;;;;;7.78;1.20;;;19.10;99.90;;;;;;4986898;28;20608;-79
2022/08/27 10:04:16;;;;;;;3.65;0.88;;;19.00;99.90;;;;;;4985822;28;20049;-79
2022/08/27 10:06:47;;;;;;;2.90;0.70;;;19.00;99.90;;;;;;5001844;28;20056;-78
2022/08/27 10:09:20;;;;;;;5.80;1.67;;;19.10;99.90;;;;;;4985672;28;20452;-78
2022/08/27 10:12:02;;;;;;;9.27;2.45;;;19.10;99.90;;;;;;4981108;28;20047;-79
2022/08/27 10:14:33;;;;;;;8.02;1.73;;;19.30;99.90;;;;;;4983354;28;20125;-79
2022/08/27 10:17:15;;;;;;;5.13;1.00;;;19.30;99.90;;;;;;4983936;28;20034;-79
2022/08/27 10:19:58;;;;;;;6.55;1.40;;;19.30;99.90;;;;;;4985916;28;20494;-78
2022/08/27 10:22:50;;;;;;;7.10;0.88;;;19.30;99.90;;;;;;4986203;28;20505;-76
2022/08/27 10:25:27;;;;;;;7.25;1.17;;;19.20;99.90;;;;;;4985961;28;20129;-80
2022/08/27 10:28:27;;;;;;;6.68;1.35;;;19.20;99.90;;;;;;4983173;28;20517;-80
2022/08/27 10:31:10;;;;;;;6.55;1.65;;;19.20;99.90;;;;;;4958088;28;20067;-80
2022/08/27 10:34:05;;;;;;;6.43;1.20;;;19.30;99.90;;;;;;4983056;28;20108;-79
2022/08/27 10:36:43;;;;;;;5.40;0.80;;;19.30;99.90;;;;;;4982299;28;20062;-78
2022/08/27 10:39:29;;;;;;;4.22;0.98;;;19.30;99.90;;;;;;4984969;28;20469;-80
2022/08/27 10:42:05;;;;;;;13.85;1.90;;;19.40;99.90;;;;;;4980635;28;20045;-78
2022/08/27 10:44:49;;;;;;;7.35;1.00;;;19.50;99.90;;;;;;5004647;28;20129;-79
2022/08/27 10:47:38;;;;;;;7.15;1.20;;;19.90;99.90;;;;;;4986753;28;20053;-79
2022/08/27 10:50:13;;;;;;;5.13;0.80;;;19.80;99.90;;;;;;4990013;28;20053;-79
2022/08/27 10:52:45;;;;;;;5.60;0.70;;;19.60;99.90;;;;;;4989418;28;20054;-77
2022/08/27 10:55:51;;;;;;;4.85;1.17;;;19.50;99.90;;;;;;4988575;28;20404;-78
2022/08/27 10:58:38;;;;;;;7.78;1.95;;;19.40;99.90;;;;;;4967900;28;20038;-74
2022/08/27 11:01:29;;;;;;;5.90;0.95;;;19.40;99.90;;;;;;4975894;28;20057;-78
2022/08/27 11:04:01;;;;;;;7.90;1.65;;;19.40;99.90;;;;;;4986921;28;20165;-78
2022/08/27 11:06:31;;;;;;;4.72;0.85;;;19.40;99.90;;;;;;4986180;28;20116;-78
2022/08/27 11:09:11;;;;;;;8.05;1.42;;;19.60;99.90;;;;;;4989410;28;20042;-80
2022/08/27 11:11:55;;;;;;;10.95;1.75;;;19.80;99.90;;;;;;4988195;28;20051;-79
2022/08/27 11:14:31;;;;;;;5.75;1.13;;;19.90;99.90;;;;;;4971448;28;20057;-79
2022/08/27 11:17:05;;;;;;;5.65;1.55;;;20.00;99.90;;;;;;4983879;28;20042;-78
2022/08/27 11:19:49;;;;;;;9.82;1.83;;;20.40;99.90;;;;;;4988044;28;20124;-78
2022/08/27 11:22:21;;;;;;;3.08;0.60;;;20.30;99.90;;;;;;4987009;28;20046;-78
2022/08/27 11:24:53;;;;;;;4.13;0.68;;;20.70;99.90;;;;;;4988833;28;20051;-78
2022/08/27 11:27:24;;;;;;;5.47;0.82;;;20.30;99.90;;;;;;4987011;28;20046;-78
2022/08/27 11:30:08;;;;;;;7.85;1.42;;;20.70;99.90;;;;;;4989322;28;20042;-77
2022/08/27 11:32:53;;;;;;;5.82;1.60;;;21.10;99.90;;;;;;4987031;28;20374;-78
2022/08/27 11:35:48;;;;;;;4.15;1.73;;;21.40;99.90;;;;;;4987243;28;20508;-77
2022/08/27 11:38:28;;;;;;;2.33;0.57;;;20.80;99.90;;;;;;4975003;28;20108;-78
2022/08/27 11:41:16;;;;;;;2.03;0.40;;;20.60;99.90;;;;;;4987235;28;20049;-79
2022/08/27 11:43:43;;;;;;;6.18;1.20;;;21.10;99.90;;;;;;4987112;28;20497;-77
2022/08/27 11:46:10;;;;;;;7.53;0.80;;;21.20;99.90;;;;;;4986868;28;20062;-79
2022/08/27 11:48:40;;;;;;;5.38;1.08;;;20.90;99.90;;;;;;4987835;28;20049;-77
2022/08/27 11:51:29;;;;;;;3.78;0.70;;;20.90;99.90;;;;;;4987519;28;20515;-77
2022/08/27 11:54:02;;;;;;;4.17;0.90;;;20.70;99.90;;;;;;4984997;28;20054;-79
2022/08/27 11:56:27;;;;;;;2.55;0.80;;;20.60;99.90;;;;;;4986558;28;20301;-79
2022/08/27 11:58:53;;;;;;;5.03;0.90;;;20.50;99.90;;;;;;5003777;28;20038;-77
2022/08/27 12:01:27;;;;;;;6.63;1.70;;;20.70;99.90;;;;;;4987639;28;20031;-79
2022/08/27 12:04:07;;;;;;;5.53;1.58;;;21.10;99.90;;;;;;4984490;28;20071;-80
2022/08/27 12:06:42;;;;;;;;;;;20.90;99.90;;;;;;4989545;28;20131;-79
2022/08/27 12:09:19;;;;;;;2.40;0.40;;;20.60;99.90;;;;;;4986452;28;20061;-81
2022/08/27 12:12:16;;;;;;;7.53;1.65;;;20.30;99.90;;;;;;4987426;28;20117;-80
2022/08/27 12:14:52;;;;;;;1.88;0.60;;;20.50;99.90;;;;;;4978054;28;20050;-80
2022/08/27 12:17:35;;;;;;;7.78;1.00;;;20.60;99.90;;;;;;4985044;28;20536;-80
2022/08/27 12:20:06;;;;;;;4.43;1.40;;;20.90;99.90;;;;;;4987012;28;20104;-80
2022/08/27 12:25:35;;;;;;;6.18;1.65;;;20.90;99.90;;;;;;4986472;28;20125;-81
2022/08/27 12:28:04;;;;;;;5.65;1.65;;;21.20;99.90;;;;;;4987260;28;20457;-79
2022/08/27 12:30:40;;;;;;;3.42;0.60;;;21.20;99.90;;;;;;4988444;28;20089;-80
2022/08/27 12:33:29;;;;;;;6.53;0.98;;;20.30;99.90;;;;;;4985942;28;20050;-79
2022/08/27 12:36:02;;;;;;;5.22;1.15;;;20.30;99.90;;;;;;4986889;28;20048;-80
2022/08/27 12:38:31;;;;;;;10.25;1.33;;;20.30;99.90;;;;;;4987355;28;20054;-80
2022/08/27 12:41:02;;;;;;;4.55;0.65;;;20.70;99.90;;;;;;4986218;28;20405;-80
2022/08/27 12:43:32;;;;;;;4.55;0.75;;;20.70;99.90;;;;;;4987568;28;20038;-79
2022/08/27 12:46:06;;;;;;;4.80;1.08;;;21.00;99.90;;;;;;4986882;28;20042;-79
2022/08/27 12:48:38;;;;;;;5.40;1.00;;;21.20;99.90;;;;;;4985535;28;20050;-81
2022/08/27 12:51:11;;;;;;;11.70;1.35;;;21.60;99.90;;;;;;4987313;28;20039;-79
2022/08/27 12:53:44;;;;;;;6.93;1.23;;;21.80;99.90;;;;;;5002439;28;20108;-80
2022/08/27 12:56:21;;;;;;;4.88;1.70;;;22.20;99.90;;;;;;4985125;28;20045;-80
2022/08/27 12:58:59;;;;;;;7.70;1.40;;;21.60;99.90;;;;;;4986028;28;20046;-78
2022/08/27 13:01:28;;;;;;;2.45;0.60;;;20.90;99.90;;;;;;4986594;28;20181;-80
2022/08/27 13:03:54;;;;;;;5.20;0.50;;;20.90;99.90;;;;;;4986035;28;20046;-80
2022/08/27 13:06:43;;;;;;;12.73;1.52;;;20.60;99.90;;;;;;4986880;28;20085;-79
2022/08/27 13:09:09;;;;;;;3.20;0.80;;;20.50;99.90;;;;;;4985229;28;20457;-79
2022/08/27 13:11:54;;;;;;;4.10;0.65;;;20.20;99.90;;;;;;4986770;28;20125;-80